createdAt,value
2018-05-29T00:01:43.192Z,97.00
2018-05-29T00:04:10.713Z,97.00
2018-05-29T00:06:38.233Z,96.90
2018-05-29T00:09:06.871Z,96.90
2018-05-29T00:11:34.411Z,96.90
2018-05-29T00:14:01.928Z,96.70
2018-05-29T00:16:29.486Z,96.70
2018-05-29T00:18:56.996Z,97.40
2018-05-29T00:21:24.523Z,97.30
2018-05-29T00:23:52.078Z,97.80
2018-05-29T00:26:20.363Z,98.30
2018-05-29T00:28:48.648Z,98.60
2018-05-29T00:31:17.255Z,98.50
2018-05-29T00:33:44.789Z,98.90
2018-05-29T00:36:12.315Z,99.10
2018-05-29T00:38:39.863Z,98.40
2018-05-29T00:43:41.202Z,99.10
2018-05-29T00:46:08.727Z,98.50
2018-05-29T00:48:36.260Z,98.50
2018-05-29T00:51:04.171Z,98.70
2018-05-29T00:53:31.705Z,98.50
2018-05-29T00:55:59.255Z,99.30
2018-05-29T00:58:27.579Z,98.90
2018-05-29T01:00:55.105Z,98.90
2018-05-29T01:03:23.088Z,99.10
2018-05-29T01:05:50.639Z,99.40
2018-05-29T01:08:18.175Z,99.80
2018-05-29T01:10:46.460Z,99.90
2018-05-29T01:13:16.718Z,99.90
2018-05-29T01:15:44.227Z,99.90
2018-05-29T01:18:12.519Z,99.90
2018-05-29T01:20:40.819Z,99.90
2018-05-29T01:23:08.337Z,99.90
2018-05-29T01:25:35.863Z,99.90
2018-05-29T01:28:03.422Z,99.90
2018-05-29T01:30:30.939Z,99.90
2018-05-29T01:32:58.467Z,99.90
2018-05-29T01:35:27.120Z,99.90
2018-05-29T01:37:54.636Z,99.90
2018-05-29T01:40:22.163Z,99.90
2018-05-29T01:42:50.496Z,99.90
2018-05-29T01:45:18.015Z,99.90
2018-05-29T01:47:46.315Z,99.90
2018-05-29T01:50:16.264Z,99.90
2018-05-29T01:52:43.783Z,99.90
2018-05-29T01:55:11.305Z,99.90
2018-05-29T01:57:39.218Z,99.90
2018-05-29T02:00:07.471Z,99.90
2018-05-29T02:02:35.008Z,99.90
2018-05-29T02:05:02.806Z,99.90
2018-05-29T02:07:30.336Z,99.90
2018-05-29T02:09:58.631Z,99.90
2018-05-29T02:12:26.950Z,99.90
2018-05-29T02:14:54.471Z,99.90
2018-05-29T02:17:21.994Z,99.90
2018-05-29T02:19:50.075Z,99.90
2018-05-29T02:22:17.591Z,99.90
2018-05-29T02:24:45.880Z,99.90
2018-05-29T02:27:25.791Z,99.90
2018-05-29T02:32:30.396Z,99.90
2018-05-29T02:34:57.917Z,99.90
2018-05-29T02:37:26.696Z,99.90
2018-05-29T02:39:54.455Z,99.90
2018-05-29T02:42:21.975Z,99.90
2018-05-29T02:44:50.279Z,99.90
2018-05-29T02:47:17.853Z,99.90
2018-05-29T02:49:45.377Z,99.90
2018-05-29T02:52:26.008Z,99.90
2018-05-29T02:57:50.619Z,99.90
2018-05-29T03:00:18.144Z,99.90
2018-05-29T03:02:45.672Z,99.90
2018-05-29T03:05:14.872Z,99.90
2018-05-29T03:07:43.195Z,99.90
2018-05-29T03:10:11.478Z,99.90
2018-05-29T03:12:39.235Z,99.90
2018-05-29T03:15:06.793Z,99.90
2018-05-29T03:17:34.319Z,99.90
2018-05-29T03:20:02.202Z,99.90
2018-05-29T03:22:29.726Z,99.90
2018-05-29T03:24:58.066Z,99.90
2018-05-29T03:27:25.606Z,99.90
2018-05-29T03:29:53.131Z,99.90
2018-05-29T03:32:20.659Z,99.90
2018-05-29T03:34:48.224Z,99.90
2018-05-29T03:37:16.489Z,99.90
2018-05-29T03:39:44.792Z,99.90
2018-05-29T03:42:12.891Z,99.90
2018-05-29T03:44:40.432Z,99.90
2018-05-29T03:47:07.962Z,99.90
2018-05-29T03:49:35.506Z,99.90
2018-05-29T03:52:03.031Z,99.90
2018-05-29T03:54:30.562Z,99.90
2018-05-29T03:56:58.120Z,99.90
2018-05-29T03:59:25.677Z,99.90
2018-05-29T04:01:53.945Z,99.90
2018-05-29T04:04:21.800Z,99.90
2018-05-29T04:06:50.291Z,99.90
2018-05-29T04:09:18.612Z,99.90
2018-05-29T04:11:46.147Z,99.90
2018-05-29T04:14:24.476Z,99.90
2018-05-29T04:24:12.575Z,99.90
2018-05-29T04:26:40.091Z,99.90
2018-05-29T04:29:07.617Z,99.90
2018-05-29T04:31:35.166Z,99.90
2018-05-29T04:34:02.691Z,99.90
2018-05-29T04:36:30.241Z,99.90
2018-05-29T04:38:57.787Z,99.90
2018-05-29T04:41:25.318Z,99.90
2018-05-29T04:43:52.879Z,99.90
2018-05-29T04:46:21.279Z,99.90
2018-05-29T04:48:48.831Z,99.90
2018-05-29T04:51:16.452Z,99.90
2018-05-29T04:53:44.003Z,99.90
2018-05-29T04:56:11.523Z,99.90
2018-05-29T04:58:39.218Z,99.90
2018-05-29T05:01:06.784Z,99.90
2018-05-29T05:03:34.330Z,99.90
2018-05-29T05:06:01.889Z,99.90
2018-05-29T05:08:29.923Z,99.90
2018-05-29T05:10:58.205Z,99.90
2018-05-29T05:13:25.738Z,99.90
2018-05-29T05:15:53.485Z,99.90
2018-05-29T05:18:21.821Z,98.30
2018-05-29T05:20:49.856Z,98.30
2018-05-29T05:23:18.183Z,99.40
2018-05-29T05:25:45.793Z,99.40
2018-05-29T05:28:14.552Z,99.20
2018-05-29T05:30:42.856Z,99.00
2018-05-29T05:33:10.385Z,98.70
2018-05-29T05:35:37.931Z,98.40
2018-05-29T05:38:05.544Z,97.90
2018-05-29T05:40:33.834Z,96.60
2018-05-29T05:43:01.364Z,96.50
2018-05-29T05:45:29.692Z,92.60
2018-05-29T05:47:57.267Z,92.60
2018-05-29T05:50:24.786Z,90.60
2018-05-29T05:52:52.794Z,80.90
2018-05-29T05:55:20.332Z,75.60
2018-05-29T05:57:47.863Z,72.20
2018-05-29T06:00:16.574Z,69.90
2018-05-29T06:02:44.130Z,69.70
2018-05-29T06:05:11.675Z,69.70
2018-05-29T06:07:39.243Z,69.60
2018-05-29T06:10:07.005Z,65.60
2018-05-29T06:12:34.544Z,63.60
2018-05-29T06:15:02.902Z,62.30
2018-05-29T06:17:30.415Z,62.30
2018-05-29T06:19:57.932Z,61.80
2018-05-29T06:22:26.254Z,59.00
2018-05-29T06:24:53.771Z,59.00
2018-05-29T06:27:21.314Z,57.90
2018-05-29T06:29:48.854Z,55.70
2018-05-29T06:32:16.390Z,54.00
2018-05-29T06:34:44.157Z,52.00
2018-05-29T06:37:11.905Z,51.90
2018-05-29T06:39:39.426Z,51.00
2018-05-29T06:42:07.706Z,51.00
2018-05-29T06:44:35.256Z,51.00
2018-05-29T06:47:03.763Z,48.80
2018-05-29T06:49:31.311Z,48.70
2018-05-29T06:51:58.883Z,49.10
2018-05-29T06:54:26.438Z,47.80
2018-05-29T06:56:54.071Z,47.80
2018-05-29T06:59:21.650Z,48.30
2018-05-29T07:01:50.317Z,48.70
2018-05-29T07:04:18.616Z,48.10
2018-05-29T07:06:46.995Z,50.60
2018-05-29T07:09:30.090Z,50.50
2018-05-29T07:20:27.983Z,51.00
2018-05-29T07:22:55.500Z,49.20
2018-05-29T07:25:23.027Z,46.40
2018-05-29T07:27:50.578Z,43.60
2018-05-29T07:30:18.116Z,41.30
2018-05-29T07:32:45.632Z,39.60
2018-05-29T07:35:25.259Z,36.90
2018-05-29T07:45:37.871Z,36.90
2018-05-29T07:48:05.398Z,37.60
2018-05-29T07:50:32.928Z,38.50
2018-05-29T07:53:01.269Z,38.80
2018-05-29T07:55:28.783Z,38.90
2018-05-29T07:57:57.074Z,35.60
2018-05-29T08:00:24.619Z,35.60
2018-05-29T08:02:52.136Z,34.70
2018-05-29T08:05:19.659Z,37.70
2018-05-29T08:07:48.248Z,37.70
2018-05-29T08:10:17.321Z,38.50
2018-05-29T08:12:44.922Z,38.50
2018-05-29T08:15:12.559Z,39.20
2018-05-29T08:17:40.071Z,39.80
2018-05-29T08:20:08.393Z,37.80
2018-05-29T08:22:36.299Z,37.80
2018-05-29T08:25:04.687Z,35.80
2018-05-29T08:27:32.347Z,31.90
2018-05-29T08:29:59.919Z,30.60
2018-05-29T08:32:28.212Z,29.30
2018-05-29T08:34:56.488Z,29.60
2018-05-29T08:37:24.791Z,29.20
2018-05-29T08:39:52.305Z,29.20
2018-05-29T08:42:19.818Z,28.70
2018-05-29T08:44:47.355Z,30.30
2018-05-29T08:47:16.219Z,34.10
2018-05-29T08:49:44.493Z,36.80
2018-05-29T08:52:13.787Z,41.30
2018-05-29T08:54:42.535Z,42.10
2018-05-29T08:57:10.136Z,42.10
2018-05-29T08:59:38.440Z,40.80
2018-05-29T09:02:05.963Z,39.50
2018-05-29T09:04:33.515Z,36.80
2018-05-29T09:07:01.847Z,32.40
2018-05-29T09:09:29.372Z,31.70
2018-05-29T09:11:57.666Z,29.20
2018-05-29T09:14:25.618Z,28.70
2018-05-29T09:16:53.119Z,26.70
2018-05-29T09:19:20.643Z,26.00
2018-05-29T09:21:48.183Z,25.40
2018-05-29T09:24:16.650Z,25.40
2018-05-29T09:26:44.171Z,24.70
2018-05-29T09:29:11.711Z,24.40
2018-05-29T09:31:39.278Z,23.00
2018-05-29T09:34:07.527Z,22.60
2018-05-29T09:36:35.887Z,22.20
2018-05-29T09:39:03.749Z,22.20
2018-05-29T09:41:31.334Z,22.50
2018-05-29T09:43:58.849Z,22.30
2018-05-29T09:46:26.378Z,22.20
2018-05-29T09:48:53.935Z,22.10
2018-05-29T09:51:21.483Z,22.60
2018-05-29T09:53:48.998Z,23.40
2018-05-29T09:56:16.523Z,23.90
2018-05-29T09:58:45.244Z,24.80
2018-05-29T10:01:13.798Z,25.10
2018-05-29T10:03:41.310Z,25.50
2018-05-29T10:06:09.758Z,27.60
2018-05-29T10:08:37.287Z,27.50
2018-05-29T10:11:05.122Z,28.40
2018-05-29T10:13:32.658Z,30.20
2018-05-29T10:16:00.178Z,30.90
2018-05-29T10:18:27.745Z,33.60
2018-05-29T10:20:55.599Z,33.10
2018-05-29T10:23:23.145Z,35.40
2018-05-29T10:25:50.673Z,37.10
2018-05-29T10:28:19.023Z,38.70
2018-05-29T10:30:46.540Z,38.70
2018-05-29T10:33:16.343Z,40.00
2018-05-29T10:35:43.918Z,40.00
2018-05-29T10:38:11.441Z,40.30
2018-05-29T10:40:39.718Z,40.60
2018-05-29T10:43:07.338Z,40.60
2018-05-29T10:45:34.883Z,40.30
2018-05-29T10:48:02.466Z,42.20
2018-05-29T10:50:30.874Z,41.10
2018-05-29T10:52:58.453Z,41.00
2018-05-29T10:55:25.971Z,41.20
2018-05-29T10:57:54.279Z,42.90
2018-05-29T11:00:21.807Z,42.90
2018-05-29T11:02:49.343Z,42.70
2018-05-29T11:05:16.954Z,41.80
2018-05-29T11:07:44.475Z,40.90
2018-05-29T11:10:11.997Z,41.80
2018-05-29T11:12:39.556Z,41.30
2018-05-29T11:15:07.067Z,40.20
2018-05-29T11:17:35.369Z,42.60
2018-05-29T11:20:03.002Z,42.00
2018-05-29T11:22:31.091Z,41.30
2018-05-29T11:24:58.614Z,40.90
2018-05-29T11:27:27.064Z,39.90
2018-05-29T11:29:54.579Z,39.30
2018-05-29T11:32:22.857Z,38.60
2018-05-29T11:34:51.168Z,37.50
2018-05-29T11:37:18.689Z,37.40
2018-05-29T11:39:46.221Z,39.20
2018-05-29T11:42:16.351Z,37.80
2018-05-29T11:44:43.866Z,37.80
2018-05-29T11:47:11.396Z,40.20
2018-05-29T11:49:38.972Z,38.70
2018-05-29T11:52:06.503Z,39.20
2018-05-29T11:54:34.779Z,37.10
2018-05-29T11:57:02.355Z,37.10
2018-05-29T11:59:29.866Z,38.90
2018-05-29T12:01:57.382Z,40.40
2018-05-29T12:04:24.935Z,39.10
2018-05-29T12:06:52.456Z,38.50
2018-05-29T12:09:19.978Z,38.70
2018-05-29T12:11:47.564Z,39.60
2018-05-29T12:14:16.414Z,40.20
2018-05-29T12:16:44.279Z,39.60
2018-05-29T12:19:11.854Z,39.30
2018-05-29T12:21:39.367Z,39.30
2018-05-29T12:24:07.676Z,38.50
2018-05-29T12:26:35.226Z,38.50
2018-05-29T12:29:03.743Z,38.10
2018-05-29T12:31:31.264Z,38.00
2018-05-29T12:33:59.119Z,39.50
2018-05-29T12:36:26.675Z,36.20
2018-05-29T12:38:54.192Z,39.40
2018-05-29T12:41:21.751Z,42.30
2018-05-29T12:43:49.275Z,41.80
2018-05-29T12:46:16.815Z,41.30
2018-05-29T12:48:44.363Z,40.10
2018-05-29T12:51:12.085Z,41.30
2018-05-29T12:53:39.610Z,41.70
2018-05-29T12:56:07.783Z,42.90
2018-05-29T12:58:35.287Z,41.80
2018-05-29T13:01:02.805Z,41.60
2018-05-29T13:03:30.340Z,43.50
2018-05-29T13:05:57.870Z,44.70
2018-05-29T13:08:26.163Z,43.50
2018-05-29T13:10:53.723Z,43.50
2018-05-29T13:13:21.285Z,43.90
2018-05-29T13:15:48.811Z,44.20
2018-05-29T13:18:17.921Z,43.30
2018-05-29T13:20:45.441Z,43.20
2018-05-29T13:23:24.730Z,44.70
2018-05-29T13:27:57.386Z,44.50
2018-05-29T13:30:25.390Z,45.70
2018-05-29T13:32:53.682Z,43.50
2018-05-29T13:35:21.240Z,43.40
2018-05-29T13:37:49.422Z,44.10
2018-05-29T13:40:16.962Z,44.10
2018-05-29T13:42:44.854Z,43.30
2018-05-29T13:45:12.407Z,42.40
2018-05-29T13:47:39.914Z,42.20
2018-05-29T13:50:07.423Z,44.90
2018-05-29T13:52:34.968Z,45.60
2018-05-29T13:55:02.495Z,44.20
2018-05-29T13:57:30.816Z,44.90
2018-05-29T13:59:58.970Z,44.90
2018-05-29T14:02:26.499Z,42.30
2018-05-29T14:04:54.866Z,42.70
2018-05-29T14:07:23.110Z,42.50
2018-05-29T14:09:50.650Z,44.60
2018-05-29T14:12:18.185Z,45.90
2018-05-29T14:14:47.027Z,46.50
2018-05-29T14:17:26.651Z,44.80
2018-05-29T14:23:23.011Z,44.40
2018-05-29T14:25:50.570Z,44.60
2018-05-29T14:28:18.132Z,44.30
2018-05-29T14:30:46.095Z,43.60
2018-05-29T14:33:25.002Z,43.00
2018-05-29T14:38:38.151Z,44.80
2018-05-29T14:41:05.734Z,45.10
2018-05-29T14:43:33.257Z,43.50
2018-05-29T14:46:00.894Z,44.00
2018-05-29T14:48:28.413Z,41.60
2018-05-29T14:50:55.966Z,41.40
2018-05-29T14:53:23.522Z,41.70
2018-05-29T14:55:51.488Z,41.60
2018-05-29T14:58:19.027Z,41.10
2018-05-29T15:00:47.562Z,41.90
2018-05-29T15:03:17.217Z,42.20
2018-05-29T15:05:44.743Z,42.10
2018-05-29T15:08:14.023Z,41.60
2018-05-29T15:10:41.626Z,41.60
2018-05-29T15:13:09.186Z,41.20
2018-05-29T15:15:36.779Z,41.50
2018-05-29T15:18:04.301Z,42.00
2018-05-29T15:20:31.851Z,41.70
2018-05-29T15:22:59.936Z,41.30
2018-05-29T15:25:27.476Z,41.40
2018-05-29T15:27:55.819Z,41.90
2018-05-29T15:30:23.406Z,41.90
2018-05-29T15:32:52.202Z,40.80
2018-05-29T15:35:20.498Z,40.90
2018-05-29T15:37:48.282Z,40.90
2018-05-29T15:40:17.248Z,40.70
2018-05-29T15:42:45.526Z,40.20
2018-05-29T15:45:25.208Z,40.20
2018-05-29T16:01:29.202Z,40.30
2018-05-29T16:03:56.740Z,41.20
2018-05-29T16:06:24.805Z,40.80
2018-05-29T16:08:52.379Z,41.70
2018-05-29T16:11:20.771Z,41.60
2018-05-29T16:13:48.270Z,41.60
2018-05-29T16:16:17.578Z,41.60
2018-05-29T16:18:45.091Z,41.60
2018-05-29T16:21:12.611Z,42.50
2018-05-29T16:23:40.247Z,43.10
2018-05-29T16:26:08.553Z,43.40
2018-05-29T16:28:36.081Z,43.30
2018-05-29T16:31:03.706Z,43.70
2018-05-29T16:33:31.242Z,44.10
2018-05-29T16:35:58.751Z,44.70
2018-05-29T16:38:26.300Z,46.00
2018-05-29T16:40:53.819Z,46.20
2018-05-29T16:43:21.501Z,46.20
2018-05-29T16:45:49.654Z,46.70
2018-05-29T16:48:17.200Z,47.00
2018-05-29T16:50:44.785Z,46.20
2018-05-29T16:53:12.420Z,46.80
2018-05-29T16:55:39.950Z,48.10
2018-05-29T16:58:07.479Z,48.10
2018-05-29T17:00:35.040Z,48.90
2018-05-29T17:03:02.571Z,49.60
2018-05-29T17:05:30.131Z,50.60
2018-05-29T17:07:58.298Z,50.40
2018-05-29T17:10:25.853Z,51.00
2018-05-29T17:12:53.398Z,51.60
2018-05-29T17:15:21.023Z,52.30
2018-05-29T17:17:48.517Z,52.70
2018-05-29T17:20:16.514Z,53.10
2018-05-29T17:22:44.170Z,52.80
2018-05-29T17:25:11.691Z,52.00
2018-05-29T17:27:39.996Z,51.40
2018-05-29T17:30:08.176Z,51.30
2018-05-29T17:32:35.711Z,50.40
2018-05-29T17:35:04.264Z,51.60
2018-05-29T17:37:31.815Z,51.60
2018-05-29T17:39:59.334Z,51.50
2018-05-29T17:42:26.841Z,51.30
2018-05-29T17:44:54.559Z,50.90
2018-05-29T17:47:22.080Z,51.40
2018-05-29T17:49:49.610Z,51.40
2018-05-29T17:52:17.500Z,52.00
2018-05-29T17:54:45.784Z,51.80
2018-05-29T17:57:24.435Z,52.60
2018-05-29T18:02:24.978Z,52.70
2018-05-29T18:04:52.506Z,52.70
2018-05-29T18:07:20.064Z,53.00
2018-05-29T18:09:48.746Z,53.80
2018-05-29T18:12:17.292Z,53.80
2018-05-29T18:14:44.810Z,53.60
2018-05-29T18:17:12.418Z,54.80
2018-05-29T18:19:39.961Z,55.00
2018-05-29T18:22:07.504Z,55.00
2018-05-29T18:24:35.070Z,55.20
2018-05-29T18:27:02.594Z,55.60
2018-05-29T18:29:30.436Z,55.60
2018-05-29T18:31:59.067Z,56.50
2018-05-29T18:34:26.599Z,56.00
2018-05-29T18:36:55.399Z,57.40
2018-05-29T18:39:22.952Z,56.80
2018-05-29T18:41:50.468Z,56.80
2018-05-29T18:44:17.978Z,56.90
2018-05-29T18:46:45.609Z,57.10
2018-05-29T18:49:25.076Z,58.10
2018-05-29T19:06:13.389Z,59.80
2018-05-29T19:08:41.948Z,61.00
2018-05-29T19:11:09.511Z,60.90
2018-05-29T19:13:37.696Z,61.10
2018-05-29T19:16:05.214Z,62.00
2018-05-29T19:18:32.759Z,62.60
2018-05-29T19:21:01.348Z,63.70
2018-05-29T19:23:28.870Z,63.70
2018-05-29T19:25:56.380Z,64.60
2018-05-29T19:28:24.496Z,65.20
2018-05-29T19:30:52.782Z,67.10
2018-05-29T19:33:20.298Z,67.10
2018-05-29T19:35:47.862Z,68.10
2018-05-29T19:38:16.655Z,69.80
2018-05-29T19:40:44.643Z,70.50
2018-05-29T19:43:13.933Z,73.00
2018-05-29T19:45:43.037Z,74.10
2018-05-29T19:48:11.327Z,74.70
2018-05-29T19:50:38.908Z,74.60
2018-05-29T19:53:06.451Z,74.80
2018-05-29T19:55:33.970Z,75.80
2018-05-29T19:58:01.507Z,76.20
2018-05-29T20:00:29.029Z,76.60
2018-05-29T20:02:56.562Z,77.40
2018-05-29T20:05:24.884Z,80.10
2018-05-29T20:07:52.407Z,80.00
2018-05-29T20:10:19.926Z,81.40
2018-05-29T20:12:47.659Z,82.50
2018-05-29T20:15:17.282Z,84.00
2018-05-29T20:17:44.799Z,84.00
2018-05-29T20:20:12.362Z,84.70
2018-05-29T20:22:39.883Z,85.60
2018-05-29T20:25:07.416Z,85.10
2018-05-29T20:27:34.966Z,85.00
2018-05-29T20:30:02.491Z,86.50
2018-05-29T20:32:30.024Z,88.50
2018-05-29T20:34:58.072Z,89.90
2018-05-29T20:37:25.610Z,90.10
2018-05-29T20:39:54.050Z,91.20
2018-05-29T20:42:22.383Z,90.80
2018-05-29T20:44:49.971Z,90.80
2018-05-29T20:47:17.487Z,90.60
2018-05-29T20:49:45.084Z,90.80
2018-05-29T20:52:12.596Z,90.80
2018-05-29T20:54:40.140Z,91.00
2018-05-29T20:57:07.758Z,90.80
2018-05-29T20:59:35.380Z,91.00
2018-05-29T21:02:02.915Z,91.10
2018-05-29T21:04:30.471Z,90.90
2018-05-29T21:06:58.773Z,93.20
2018-05-29T21:09:26.291Z,93.10
2018-05-29T21:11:54.628Z,93.70
2018-05-29T21:14:22.193Z,93.70
2018-05-29T21:16:49.704Z,93.00
2018-05-29T21:19:18.519Z,92.20
2018-05-29T21:21:46.060Z,92.20
2018-05-29T21:24:15.455Z,92.80
2018-05-29T21:26:43.007Z,93.10
2018-05-29T21:29:10.544Z,94.40
2018-05-29T21:31:38.075Z,95.20
2018-05-29T21:34:05.716Z,95.20
2018-05-29T21:36:33.244Z,96.00
2018-05-29T21:39:00.767Z,96.10
2018-05-29T21:41:28.996Z,96.10
2018-05-29T21:43:56.510Z,97.60
2018-05-29T21:46:24.040Z,97.70
2018-05-29T21:48:51.605Z,98.40
2018-05-29T21:51:19.414Z,98.80
2018-05-29T21:53:47.710Z,99.10
2018-05-29T21:56:16.486Z,99.10
2018-05-29T21:58:44.015Z,99.20
2018-05-29T22:01:11.574Z,99.70
2018-05-29T22:03:39.444Z,99.90
2018-05-29T22:06:07.749Z,99.90
2018-05-29T22:08:35.281Z,99.90
2018-05-29T22:11:03.608Z,99.90
2018-05-29T22:13:31.132Z,99.90
2018-05-29T22:15:59.417Z,99.90
2018-05-29T22:18:26.963Z,99.90
2018-05-29T22:20:55.304Z,99.90
2018-05-29T22:23:22.789Z,99.90
2018-05-29T22:25:51.435Z,99.90
2018-05-29T22:28:19.016Z,99.90
2018-05-29T22:30:46.556Z,99.90
2018-05-29T22:33:26.650Z,99.90
2018-05-29T22:38:56.443Z,99.90
2018-05-29T22:41:24.319Z,99.90
2018-05-29T22:43:52.451Z,99.90
2018-05-29T22:46:20.483Z,99.90
2018-05-29T22:48:48.786Z,99.90
2018-05-29T22:51:17.280Z,99.90
2018-05-29T22:53:45.605Z,99.90
2018-05-29T22:56:14.534Z,99.90
2018-05-29T22:58:42.059Z,99.90
2018-05-29T23:01:09.602Z,99.90
2018-05-29T23:03:37.135Z,99.90
2018-05-29T23:06:04.657Z,99.90
2018-05-29T23:08:33.263Z,99.90
2018-05-29T23:11:00.794Z,99.90
2018-05-29T23:13:29.078Z,99.90
2018-05-29T23:15:57.395Z,99.90
2018-05-29T23:18:25.032Z,99.90
2018-05-29T23:20:52.478Z,99.90
2018-05-29T23:23:20.032Z,99.90
2018-05-29T23:25:47.550Z,99.90
2018-05-29T23:28:16.279Z,99.90
2018-05-29T23:30:44.923Z,99.90
2018-05-29T23:33:12.447Z,99.90
2018-05-29T23:35:39.983Z,99.90
2018-05-29T23:38:07.551Z,99.90
2018-05-29T23:40:35.080Z,99.90
2018-05-29T23:43:02.605Z,99.90
2018-05-29T23:45:30.663Z,99.90
2018-05-29T23:47:58.178Z,99.90
2018-05-29T23:50:26.487Z,99.90
2018-05-29T23:52:54.610Z,99.90
2018-05-29T23:55:22.924Z,99.90
2018-05-29T23:57:50.455Z,99.90
